Time;durP1;ratioP1;P1;durP2;ratioP2;P2;SDS_P1;SDS_P2;PMS_P1;PMS_P2;Temp;Humidity;BMP_temperature;BMP_pressure;BME280_temperature;BME280_humidity;BME280_pressure;Samples;Min_cycle;Max_cycle;Signal;HPM_P1;HPM_P2
2020/07/05 00:01:17;;;;;;;3.7;3.1;;;;;;;16.68;79.10059;942.3962;;;;
2020/07/05 00:03:42;;;;;;;7.9;3.5;;;;;;;16.69;78.90723;942.4492;;;;
2020/07/05 00:06:07;;;;;;;4.9;3;;;;;;;16.64;79.03613;942.475;;;;
2020/07/05 00:08:34;;;;;;;3.2;2.9;;;;;;;16.52;79.21191;942.4659;;;;
2020/07/05 00:10:59;;;;;;;5.8;3.2;;;;;;;16.43;79.57715;942.4778;;;;
2020/07/05 00:13:26;;;;;;;4.8;2.8;;;;;;;16.47;79.29492;942.4486;;;;
2020/07/05 00:15:51;;;;;;;5.3;2.9;;;;;;;16.42;79.27539;942.4609;;;;
2020/07/05 00:18:19;;;;;;;5.5;2.7;;;;;;;16.39;79.43262;942.4439;;;;
2020/07/05 00:20:45;;;;;;;5.4;2.8;;;;;;;16.41;79.34277;942.4598;;;;
2020/07/05 00:23:14;;;;;;;5.3;2.9;;;;;;;16.37;79.4043;942.4392;;;;
2020/07/05 00:25:36;;;;;;;6.1;3;;;;;;;16.34;79.44531;942.4579;;;;
2020/07/05 00:28:06;;;;;;;4.1;2.9;;;;;;;16.25;79.77637;942.4191;;;;
2020/07/05 00:30:31;;;;;;;5.2;2.9;;;;;;;16.17;80.07324;942.3999;;;;
2020/07/05 00:32:56;;;;;;;4;2.9;;;;;;;16.12;80.38965;942.356;;;;
2020/07/05 00:35:21;;;;;;;4.4;2.8;;;;;;;16.07;80.50684;942.3611;;;;
2020/07/05 00:37:47;;;;;;;3.8;2.9;;;;;;;15.98;80.91797;942.3613;;;;
2020/07/05 00:40:13;;;;;;;5.8;2.8;;;;;;;15.97;80.92969;942.3428;;;;
2020/07/05 00:42:38;;;;;;;5.6;2.8;;;;;;;15.92;81.33496;942.3631;;;;
2020/07/05 00:45:03;;;;;;;5.9;3.2;;;;;;;15.95;81.07617;942.3814;;;;
2020/07/05 00:47:32;;;;;;;4.1;3.1;;;;;;;15.95;80.88965;942.3775;;;;
2020/07/05 00:49:57;;;;;;;6.5;2.8;;;;;;;15.9;80.69629;942.3704;;;;
2020/07/05 00:52:23;;;;;;;3.9;2.6;;;;;;;15.82;80.83008;942.3652;;;;
2020/07/05 00:54:48;;;;;;;4.3;2.8;;;;;;;15.7;81.80176;942.3397;;;;
2020/07/05 00:57:16;;;;;;;3.9;2.9;;;;;;;15.79;81.04492;942.3297;;;;
2020/07/05 00:59:42;;;;;;;4.4;2.9;;;;;;;15.77;81.84961;942.3563;;;;
2020/07/05 01:02:11;;;;;;;4.8;2.9;;;;;;;15.85;81.1123;942.3892;;;;
2020/07/05 01:04:36;;;;;;;4.3;2.9;;;;;;;15.81;81.2793;942.4066;;;;
2020/07/05 01:07:03;;;;;;;4.9;3.2;;;;;;;15.87;80.97852;942.3801;;;;
2020/07/05 01:09:28;;;;;;;4.8;2.9;;;;;;;15.96;80.47461;942.3661;;;;
2020/07/05 01:11:53;;;;;;;7.1;3;;;;;;;16.01;80.0791;942.3008;;;;
2020/07/05 01:14:18;;;;;;;7.5;2.8;;;;;;;15.96;80.08203;942.3212;;;;
2020/07/05 01:16:43;;;;;;;5.1;2.8;;;;;;;15.95;80.0459;942.3276;;;;
2020/07/05 01:19:15;;;;;;;6.1;3.1;;;;;;;15.81;80.37793;942.275;;;;
2020/07/05 01:21:42;;;;;;;5.7;3.1;;;;;;;15.77;80.4043;942.3289;;;;
2020/07/05 01:24:07;;;;;;;7.5;3.2;;;;;;;15.65;80.86914;942.2475;;;;
2020/07/05 01:26:34;;;;;;;5.2;3;;;;;;;15.61;81.00098;942.2859;;;;
2020/07/05 01:29:00;;;;;;;5.5;3.4;;;;;;;15.51;81.43359;942.298;;;;
2020/07/05 01:31:27;;;;;;;3.4;2.8;;;;;;;15.45;81.63867;942.27;;;;
2020/07/05 01:33:54;;;;;;;9.8;3.2;;;;;;;15.29;82.39355;942.2709;;;;
2020/07/05 01:36:17;;;;;;;5.7;3.2;;;;;;;15.21;83.03809;942.1914;;;;
2020/07/05 01:38:44;;;;;;;4.2;3.1;;;;;;;15.31;82.59473;942.2268;;;;
2020/07/05 01:41:09;;;;;;;5.3;2.9;;;;;;;15.24;82.60449;942.178;;;;
2020/07/05 01:43:36;;;;;;;5.7;2.8;;;;;;;15.13;83.23047;942.145;;;;
2020/07/05 01:46:02;;;;;;;3.3;2.8;;;;;;;15.23;82.72949;942.2045;;;;
2020/07/05 01:48:28;;;;;;;5.2;2.9;;;;;;;15.3;82.0166;942.1217;;;;
2020/07/05 01:50:53;;;;;;;4.9;2.8;;;;;;;15.08;82.71191;942.0898;;;;
2020/07/05 01:53:18;;;;;;;4.8;3.1;;;;;;;14.9;83.79883;942.1259;;;;
2020/07/05 01:55:46;;;;;;;4.6;3.1;;;;;;;14.9;83.6582;942.2164;;;;
2020/07/05 01:58:14;;;;;;;3.6;2.7;;;;;;;14.97;83.51074;942.1594;;;;
2020/07/05 02:00:43;;;;;;;5.8;2.7;;;;;;;14.97;83.58008;942.1747;;;;
2020/07/05 02:03:14;;;;;;;4.5;3.1;;;;;;;14.91;83.70801;942.2606;;;;
2020/07/05 02:05:36;;;;;;;3.3;2.7;;;;;;;15.04;83.08594;942.2254;;;;
2020/07/05 02:08:03;;;;;;;4.6;3.3;;;;;;;15.04;82.72852;942.1933;;;;
2020/07/05 02:10:28;;;;;;;3.7;2.9;;;;;;;15.06;82.65234;942.1933;;;;
2020/07/05 02:12:53;;;;;;;6;3.2;;;;;;;15.15;82.33398;942.2067;;;;
2020/07/05 02:15:18;;;;;;;4.7;3;;;;;;;15.26;81.87109;942.1956;;;;
2020/07/05 02:17:43;;;;;;;4.3;2.9;;;;;;;15.25;81.5791;942.2333;;;;
2020/07/05 02:20:09;;;;;;;4.9;3;;;;;;;15.26;81.51172;942.2043;;;;
2020/07/05 02:22:36;;;;;;;3.8;3;;;;;;;15.22;81.68945;942.1917;;;;
2020/07/05 02:25:01;;;;;;;3.7;2.9;;;;;;;15.24;81.79785;942.17;;;;
2020/07/05 02:27:26;;;;;;;3.9;3.1;;;;;;;15.19;81.82227;942.218;;;;
2020/07/05 02:29:53;;;;;;;7.4;3.2;;;;;;;15.19;81.69531;942.2083;;;;
2020/07/05 02:32:20;;;;;;;4.1;3;;;;;;;15.18;81.39258;942.2003;;;;
2020/07/05 02:34:45;;;;;;;3.2;2.6;;;;;;;15.05;82.00293;942.1772;;;;
2020/07/05 02:37:12;;;;;;;3.2;2.9;;;;;;;14.96;82.26465;942.0704;;;;
2020/07/05 02:39:37;;;;;;;3.8;3;;;;;;;14.93;82.52148;942.0865;;;;
2020/07/05 02:42:03;;;;;;;5;2.9;;;;;;;14.88;82.80176;942.0842;;;;
2020/07/05 02:44:28;;;;;;;5.3;2.8;;;;;;;14.94;82.52539;942.1066;;;;
2020/07/05 02:46:53;;;;;;;3.6;2.9;;;;;;;14.99;82.25879;942.1225;;;;
2020/07/05 02:49:20;;;;;;;4;2.6;;;;;;;14.91;82.33594;942.0136;;;;
2020/07/05 02:51:45;;;;;;;3.1;2.8;;;;;;;14.87;82.30176;942.1242;;;;
2020/07/05 02:54:12;;;;;;;4.5;2.8;;;;;;;14.8;82.55566;942.1111;;;;
2020/07/05 02:56:37;;;;;;;3.5;2.8;;;;;;;14.36;84.57031;942.1367;;;;
2020/07/05 02:59:07;;;;;;;5.2;3.2;;;;;;;14.38;84.78125;942.1591;;;;
2020/07/05 03:01:37;;;;;;;3.8;3;;;;;;;14.28;85.26855;942.1141;;;;
2020/07/05 03:04:01;;;;;;;4.1;3.1;;;;;;;14.14;86.03613;942.1984;;;;
2020/07/05 03:06:29;;;;;;;4.6;2.9;;;;;;;14.25;85.46973;942.2134;;;;
2020/07/05 03:08:54;;;;;;;4.8;3.1;;;;;;;14.38;84.95313;942.1519;;;;
2020/07/05 03:11:21;;;;;;;5.6;2.9;;;;;;;14.36;84.65039;942.067;;;;
2020/07/05 03:13:46;;;;;;;4.1;2.9;;;;;;;14.27;85.18555;942.1149;;;;
2020/07/05 03:16:17;;;;;;;4.2;3.2;;;;;;;14.2;85.71289;942.092;;;;
2020/07/05 03:18:42;;;;;;;6;3.4;;;;;;;14.17;85.94922;942.1008;;;;
2020/07/05 03:21:11;;;;;;;4.1;3.2;;;;;;;14.22;85.67188;942.0396;;;;
2020/07/05 03:23:41;;;;;;;4.3;3;;;;;;;14.31;85.43457;942.0893;;;;
2020/07/05 03:26:06;;;;;;;4.9;3.3;;;;;;;14.26;85.25098;942.0861;;;;
2020/07/05 03:28:31;;;;;;;3.9;3.1;;;;;;;14.39;84.47363;942.1038;;;;
2020/07/05 03:31:02;;;;;;;6.4;2.9;;;;;;;14.47;84.00293;942.1174;;;;
2020/07/05 03:33:27;;;;;;;3.9;2.8;;;;;;;14.53;83.6123;942.147;;;;
2020/07/05 03:35:58;;;;;;;3.9;2.9;;;;;;;14.5;83.40918;942.1342;;;;
2020/07/05 03:38:24;;;;;;;5.6;2.8;;;;;;;14.57;83.16992;942.1566;;;;
2020/07/05 03:40:49;;;;;;;5.4;2.8;;;;;;;14.54;82.96875;942.1373;;;;
2020/07/05 03:43:14;;;;;;;3.3;2.6;;;;;;;14.54;82.93359;942.1614;;;;
2020/07/05 03:45:46;;;;;;;5.5;2.9;;;;;;;14.42;83.44141;942.1465;;;;
2020/07/05 03:48:11;;;;;;;4.3;3.1;;;;;;;14.26;84.20313;942.1573;;;;
2020/07/05 03:50:37;;;;;;;5.1;3;;;;;;;14.14;84.76758;942.241;;;;
2020/07/05 03:53:02;;;;;;;5.5;2.9;;;;;;;14.26;84.19238;942.2086;;;;
2020/07/05 03:55:28;;;;;;;3.4;2.7;;;;;;;14.2;84.28516;942.2194;;;;
2020/07/05 03:57:54;;;;;;;4.4;2.8;;;;;;;14.25;84.16895;942.1894;;;;
2020/07/05 04:02:30;;;;;;;4.3;2.9;;;;;;;14.05;84.99219;942.3008;;;;
2020/07/05 04:04:55;;;;;;;6;3;;;;;;;;;;;;;
2020/07/05 04:07:20;;;;;;;4.9;3;;;;;;;;;;;;;
2020/07/05 04:09:45;;;;;;;5.9;2.8;;;;;;;;;;;;;
2020/07/05 04:12:10;;;;;;;6.2;2.9;;;;;;;;;;;;;
2020/07/05 04:14:36;;;;;;;4.7;2.8;;;;;;;;;;;;;
2020/07/05 04:17:02;;;;;;;4.3;2.9;;;;;;;;;;;;;
2020/07/05 04:19:27;;;;;;;6;2.8;;;;;;;;;;;;;
2020/07/05 04:21:53;;;;;;;4.9;2.9;;;;;;;;;;;;;
2020/07/05 04:24:19;;;;;;;3;2.7;;;;;;;;;;;;;
2020/07/05 04:26:44;;;;;;;5;2.8;;;;;;;;;;;;;
2020/07/05 04:29:09;;;;;;;4.6;2.8;;;;;;;;;;;;;
2020/07/05 04:31:34;;;;;;;5.6;2.9;;;;;;;;;;;;;
2020/07/05 04:33:59;;;;;;;4;2.6;;;;;;;;;;;;;
2020/07/05 04:36:25;;;;;;;3.6;2.9;;;;;;;;;;;;;
2020/07/05 04:38:50;;;;;;;4.6;2.7;;;;;;;;;;;;;
2020/07/05 04:41:15;;;;;;;5.3;2.7;;;;;;;;;;;;;
2020/07/05 04:43:42;;;;;;;4.5;2.8;;;;;;;;;;;;;
2020/07/05 04:46:07;;;;;;;3.4;2.9;;;;;;;;;;;;;
2020/07/05 04:48:32;;;;;;;8;2.9;;;;;;;;;;;;;
2020/07/05 04:50:57;;;;;;;8.3;2.8;;;;;;;;;;;;;
2020/07/05 04:53:22;;;;;;;3.1;2.5;;;;;;;;;;;;;
2020/07/05 04:55:48;;;;;;;3.7;3.1;;;;;;;;;;;;;
2020/07/05 04:58:13;;;;;;;4.4;2.7;;;;;;;;;;;;;
2020/07/05 05:00:41;;;;;;;4.7;2.8;;;;;;;;;;;;;
2020/07/05 05:03:08;;;;;;;4.3;2.7;;;;;;;;;;;;;
2020/07/05 05:05:30;;;;;;;4.1;2.9;;;;;;;;;;;;;
2020/07/05 05:07:56;;;;;;;4.5;2.4;;;;;;;;;;;;;
2020/07/05 05:10:21;;;;;;;5.1;2.5;;;;;;;;;;;;;
2020/07/05 05:12:46;;;;;;;3.2;2;;;;;;;;;;;;;
2020/07/05 05:15:11;;;;;;;3.6;1.7;;;;;;;;;;;;;
2020/07/05 05:17:37;;;;;;;3.1;1.7;;;;;;;;;;;;;
2020/07/05 05:20:02;;;;;;;3.2;1.6;;;;;;;;;;;;;
2020/07/05 05:22:27;;;;;;;3.1;1.5;;;;;;;;;;;;;
2020/07/05 05:24:53;;;;;;;3.9;1.5;;;;;;;;;;;;;
2020/07/05 05:27:18;;;;;;;2.7;1.4;;;;;;;;;;;;;
2020/07/05 05:29:43;;;;;;;5;1.3;;;;;;;;;;;;;
2020/07/05 05:32:08;;;;;;;1.6;1.2;;;;;;;;;;;;;
2020/07/05 05:34:33;;;;;;;2.4;1.3;;;;;;;;;;;;;
2020/07/05 05:36:58;;;;;;;1.9;1.1;;;;;;;;;;;;;
2020/07/05 05:39:23;;;;;;;2.1;1.1;;;;;;;;;;;;;
2020/07/05 05:41:48;;;;;;;1.7;1.2;;;;;;;;;;;;;
2020/07/05 05:44:14;;;;;;;4;1;;;;;;;;;;;;;
2020/07/05 05:46:39;;;;;;;2.7;1.1;;;;;;;;;;;;;
2020/07/05 05:49:04;;;;;;;2.5;1.1;;;;;;;;;;;;;
2020/07/05 05:51:29;;;;;;;2;1.1;;;;;;;;;;;;;
2020/07/05 05:53:55;;;;;;;1.6;1.2;;;;;;;;;;;;;
2020/07/05 05:56:19;;;;;;;3.2;1.2;;;;;;;;;;;;;
2020/07/05 05:58:44;;;;;;;2.3;1.1;;;;;;;;;;;;;
2020/07/05 06:01:10;;;;;;;1.6;1.1;;;;;;;;;;;;;
2020/07/05 06:03:35;;;;;;;2.6;1.2;;;;;;;;;;;;;
2020/07/05 06:06:00;;;;;;;1.8;1.1;;;;;;;;;;;;;
2020/07/05 06:08:25;;;;;;;1.8;1.1;;;;;;;;;;;;;
2020/07/05 06:10:50;;;;;;;3.8;1.1;;;;;;;;;;;;;
2020/07/05 06:13:15;;;;;;;3.5;1.1;;;;;;;;;;;;;
2020/07/05 06:15:41;;;;;;;2.1;1;;;;;;;;;;;;;
2020/07/05 06:18:06;;;;;;;1.4;1.1;;;;;;;;;;;;;
2020/07/05 06:20:31;;;;;;;2.4;1.1;;;;;;;;;;;;;
2020/07/05 06:22:57;;;;;;;3.7;1.2;;;;;;;;;;;;;
2020/07/05 06:25:23;;;;;;;1.9;0.9;;;;;;;;;;;;;
2020/07/05 06:27:48;;;;;;;1.7;1;;;;;;;;;;;;;
2020/07/05 06:30:14;;;;;;;1.3;1;;;;;;;;;;;;;
2020/07/05 06:32:39;;;;;;;1.8;1;;;;;;;;;;;;;
2020/07/05 06:35:05;;;;;;;1.2;0.9;;;;;;;;;;;;;
2020/07/05 06:37:30;;;;;;;2.2;0.9;;;;;;;;;;;;;
2020/07/05 06:39:55;;;;;;;2.2;0.9;;;;;;;;;;;;;
2020/07/05 06:42:20;;;;;;;1.5;1.1;;;;;;;;;;;;;
2020/07/05 06:44:46;;;;;;;2;1;;;;;;;;;;;;;
2020/07/05 06:47:11;;;;;;;2.1;1;;;;;;;;;;;;;
2020/07/05 06:49:36;;;;;;;1.1;0.9;;;;;;;;;;;;;
2020/07/05 06:52:01;;;;;;;1.8;0.9;;;;;;;;;;;;;
2020/07/05 06:54:26;;;;;;;2.7;1;;;;;;;;;;;;;
2020/07/05 06:56:52;;;;;;;3.4;1;;;;;;;;;;;;;
2020/07/05 06:59:18;;;;;;;1.1;0.8;;;;;;;;;;;;;
2020/07/05 07:01:43;;;;;;;1;0.8;;;;;;;;;;;;;
2020/07/05 07:04:08;;;;;;;1.6;0.9;;;;;;;;;;;;;
2020/07/05 07:06:33;;;;;;;1.1;0.9;;;;;;;;;;;;;
2020/07/05 07:08:58;;;;;;;2.2;0.9;;;;;;;;;;;;;
2020/07/05 07:11:23;;;;;;;1.4;0.8;;;;;;;;;;;;;
2020/07/05 07:13:48;;;;;;;1.5;0.9;;;;;;;;;;;;;
2020/07/05 07:16:14;;;;;;;2.3;0.8;;;;;;;;;;;;;
2020/07/05 07:18:39;;;;;;;4.5;1.1;;;;;;;;;;;;;
2020/07/05 07:21:04;;;;;;;1.9;0.8;;;;;;;;;;;;;
2020/07/05 07:23:32;;;;;;;1.8;1;;;;;;;;;;;;;
2020/07/05 07:25:56;;;;;;;1.9;1.1;;;;;;;;;;;;;
2020/07/05 07:28:20;;;;;;;3.5;0.8;;;;;;;;;;;;;
2020/07/05 07:30:46;;;;;;;2.1;0.9;;;;;;;;;;;;;
2020/07/05 07:33:11;;;;;;;1.6;1;;;;;;;;;;;;;
2020/07/05 07:35:36;;;;;;;1.1;0.8;;;;;;;;;;;;;
2020/07/05 07:38:01;;;;;;;2.2;1.1;;;;;;;;;;;;;
2020/07/05 07:40:29;;;;;;;1.1;0.9;;;;;;;;;;;;;
2020/07/05 07:42:51;;;;;;;1.2;0.9;;;;;;;;;;;;;
2020/07/05 07:45:16;;;;;;;2.3;0.9;;;;;;;;;;;;;
2020/07/05 07:47:41;;;;;;;1.4;0.8;;;;;;;;;;;;;
2020/07/05 07:50:06;;;;;;;4.5;1.2;;;;;;;;;;;;;
2020/07/05 07:52:31;;;;;;;2.5;1.1;;;;;;;;;;;;;
2020/07/05 07:54:56;;;;;;;2;0.9;;;;;;;;;;;;;
2020/07/05 07:57:21;;;;;;;1.7;1;;;;;;;;;;;;;
2020/07/05 07:59:47;;;;;;;2.9;1.1;;;;;;;;;;;;;
2020/07/05 08:02:11;;;;;;;1.1;0.8;;;;;;;;;;;;;
2020/07/05 08:04:37;;;;;;;2.9;1.1;;;;;;;;;;;;;
2020/07/05 08:07:02;;;;;;;1.2;0.7;;;;;;;;;;;;;
2020/07/05 08:09:27;;;;;;;1.6;0.8;;;;;;;;;;;;;
2020/07/05 08:11:53;;;;;;;1.3;0.8;;;;;;;;;;;;;
2020/07/05 08:14:18;;;;;;;1.5;0.7;;;;;;;;;;;;;
2020/07/05 08:16:45;;;;;;;2;0.8;;;;;;;;;;;;;
2020/07/05 08:19:10;;;;;;;1.3;0.8;;;;;;;;;;;;;
2020/07/05 08:21:35;;;;;;;2;0.9;;;;;;;;;;;;;
2020/07/05 08:24:00;;;;;;;1.4;0.7;;;;;;;;;;;;;
2020/07/05 08:26:27;;;;;;;1.6;0.7;;;;;;;;;;;;;
2020/07/05 08:28:52;;;;;;;1;0.7;;;;;;;;;;;;;
2020/07/05 08:31:17;;;;;;;3.4;0.8;;;;;;;;;;;;;
2020/07/05 08:33:43;;;;;;;3.9;1;;;;;;;;;;;;;
2020/07/05 08:36:08;;;;;;;2.3;0.7;;;;;;;;;;;;;
2020/07/05 08:38:33;;;;;;;1.3;0.8;;;;;;;;;;;;;
2020/07/05 08:40:58;;;;;;;2.7;0.9;;;;;;;;;;;;;
2020/07/05 08:43:23;;;;;;;2.1;0.9;;;;;;;;;;;;;
2020/07/05 08:45:48;;;;;;;2;0.8;;;;;;;;;;;;;
2020/07/05 08:48:14;;;;;;;1.7;0.7;;;;;;;;;;;;;
2020/07/05 08:50:40;;;;;;;2;0.7;;;;;;;;;;;;;
2020/07/05 08:53:05;;;;;;;1.8;0.9;;;;;;;;;;;;;
2020/07/05 08:55:30;;;;;;;1.4;0.8;;;;;;;;;;;;;
2020/07/05 08:57:57;;;;;;;1;0.7;;;;;;;;;;;;;
2020/07/05 09:00:22;;;;;;;1.3;0.7;;;;;;;;;;;;;
2020/07/05 09:02:48;;;;;;;1.4;0.7;;;;;;;;;;;;;
2020/07/05 09:05:13;;;;;;;2;0.8;;;;;;;;;;;;;
2020/07/05 09:07:39;;;;;;;1.1;0.7;;;;;;;;;;;;;
2020/07/05 09:10:06;;;;;;;1.1;0.6;;;;;;;;;;;;;
2020/07/05 09:12:30;;;;;;;1.1;0.6;;;;;;;;;;;;;
2020/07/05 09:14:55;;;;;;;1.9;0.7;;;;;;;;;;;;;
2020/07/05 09:17:20;;;;;;;0.8;0.5;;;;;;;;;;;;;
2020/07/05 09:19:45;;;;;;;1.6;0.7;;;;;;;;;;;;;
2020/07/05 09:22:13;;;;;;;2.7;0.8;;;;;;;;;;;;;
2020/07/05 09:24:36;;;;;;;1.4;0.8;;;;;;;;;;;;;
2020/07/05 09:27:01;;;;;;;1.2;0.8;;;;;;;;;;;;;
2020/07/05 09:29:27;;;;;;;2;0.8;;;;;;;;;;;;;
2020/07/05 09:31:52;;;;;;;1.9;0.8;;;;;;;;;;;;;
2020/07/05 09:34:17;;;;;;;1.3;0.8;;;;;;;;;;;;;
2020/07/05 09:36:42;;;;;;;4.7;1;;;;;;;;;;;;;
2020/07/05 09:39:07;;;;;;;1.9;0.7;;;;;;;;;;;;;
2020/07/05 09:41:33;;;;;;;1.4;0.7;;;;;;;;;;;;;
2020/07/05 09:43:57;;;;;;;2.2;0.7;;;;;;;;;;;;;
2020/07/05 09:46:23;;;;;;;1.7;0.9;;;;;;;;;;;;;
2020/07/05 09:48:48;;;;;;;2.6;0.9;;;;;;;;;;;;;
2020/07/05 09:51:13;;;;;;;3.1;0.8;;;;;;;;;;;;;
2020/07/05 09:53:38;;;;;;;1.1;0.7;;;;;;;;;;;;;
2020/07/05 09:56:03;;;;;;;1.3;0.8;;;;;;;;;;;;;
2020/07/05 09:58:30;;;;;;;1.3;0.8;;;;;;;;;;;;;
2020/07/05 10:00:54;;;;;;;2.3;0.8;;;;;;;;;;;;;
2020/07/05 10:03:21;;;;;;;2.1;0.8;;;;;;;;;;;;;
2020/07/05 10:05:45;;;;;;;1.7;0.8;;;;;;;;;;;;;
2020/07/05 10:08:12;;;;;;;2.7;0.7;;;;;;;;;;;;;
2020/07/05 10:10:37;;;;;;;1.6;0.9;;;;;;;;;;;;;
2020/07/05 10:13:03;;;;;;;3.2;1;;;;;;;;;;;;;
2020/07/05 10:15:28;;;;;;;3.1;1;;;;;;;;;;;;;
2020/07/05 10:17:56;;;;;;;2;0.7;;;;;;;;;;;;;
2020/07/05 10:20:21;;;;;;;1.2;0.9;;;;;;;;;;;;;
2020/07/05 10:22:46;;;;;;;1.5;1.1;;;;;;;;;;;;;
2020/07/05 10:25:11;;;;;;;1.5;0.8;;;;;;;;;;;;;
2020/07/05 10:27:36;;;;;;;2.5;0.9;;;;;;;;;;;;;
2020/07/05 10:30:02;;;;;;;1.6;0.9;;;;;;;;;;;;;
2020/07/05 10:32:27;;;;;;;2.4;1.1;;;;;;;;;;;;;
2020/07/05 10:34:52;;;;;;;3.1;1;;;;;;;;;;;;;
2020/07/05 10:37:17;;;;;;;2.2;0.9;;;;;;;;;;;;;
2020/07/05 10:39:42;;;;;;;2;0.8;;;;;;;;;;;;;
2020/07/05 10:42:07;;;;;;;3.3;1;;;;;;;;;;;;;
2020/07/05 10:44:32;;;;;;;1.8;0.9;;;;;;;;;;;;;
2020/07/05 10:46:58;;;;;;;1.5;0.9;;;;;;;;;;;;;
2020/07/05 10:49:24;;;;;;;1.3;0.9;;;;;;;;;;;;;
2020/07/05 10:51:49;;;;;;;2.3;0.9;;;;;;;;;;;;;
2020/07/05 10:54:18;;;;;;;1.3;0.9;;;;;;;;;;;;;
2020/07/05 10:56:40;;;;;;;5.9;1.4;;;;;;;;;;;;;
2020/07/05 10:59:07;;;;;;;1.9;0.8;;;;;;;;;;;;;
2020/07/05 11:01:31;;;;;;;2;1.1;;;;;;;;;;;;;
2020/07/05 11:03:57;;;;;;;2.2;1;;;;;;;;;;;;;
2020/07/05 11:06:22;;;;;;;1.4;1;;;;;;;;;;;;;
2020/07/05 11:08:46;;;;;;;1.9;1;;;;;;;;;;;;;
2020/07/05 11:11:12;;;;;;;1.7;0.8;;;;;;;;;;;;;
2020/07/05 11:13:37;;;;;;;2.1;1;;;;;;;;;;;;;
2020/07/05 11:16:03;;;;;;;2.6;1.1;;;;;;;;;;;;;
2020/07/05 11:18:28;;;;;;;2.3;1;;;;;;;;;;;;;
2020/07/05 11:20:54;;;;;;;2;1.1;;;;;;;;;;;;;
2020/07/05 11:23:19;;;;;;;4.3;1.1;;;;;;;;;;;;;
2020/07/05 11:25:45;;;;;;;2;0.9;;;;;;;;;;;;;
2020/07/05 11:28:10;;;;;;;2.1;1;;;;;;;;;;;;;
2020/07/05 11:30:35;;;;;;;2.2;1.1;;;;;;;;;;;;;
2020/07/05 11:33:00;;;;;;;2;1.1;;;;;;;;;;;;;
2020/07/05 11:35:27;;;;;;;2.8;1.1;;;;;;;;;;;;;
2020/07/05 11:37:50;;;;;;;1.7;0.8;;;;;;;;;;;;;
2020/07/05 11:40:16;;;;;;;2.5;0.9;;;;;;;;;;;;;
2020/07/05 11:42:40;;;;;;;5.6;1.3;;;;;;;;;;;;;
2020/07/05 11:45:06;;;;;;;7.2;1.2;;;;;;;;;;;;;
2020/07/05 11:47:31;;;;;;;4.3;1.1;;;;;;;;;;;;;
2020/07/05 11:49:57;;;;;;;3.9;1.1;;;;;;;;;;;;;
2020/07/05 11:52:22;;;;;;;2.6;1;;;;;;;;;;;;;
2020/07/05 11:54:48;;;;;;;2.3;0.9;;;;;;;;;;;;;
2020/07/05 11:57:13;;;;;;;2.3;1.1;;;;;;;;;;;;;
2020/07/05 11:59:38;;;;;;;3.8;1.2;;;;;;;;;;;;;
2020/07/05 12:02:04;;;;;;;4;1.1;;;;;;;;;;;;;
2020/07/05 12:04:32;;;;;;;1.6;1;;;;;;;;;;;;;
2020/07/05 12:06:56;;;;;;;1.7;1;;;;;;;;;;;;;
2020/07/05 12:09:21;;;;;;;2.3;0.9;;;;;;;;;;;;;
2020/07/05 12:11:48;;;;;;;1.5;1.1;;;;;;;;;;;;;
2020/07/05 12:14:11;;;;;;;2;0.9;;;;;;;;;;;;;
2020/07/05 12:16:37;;;;;;;5.1;1.8;;;;;;;;;;;;;
2020/07/05 12:19:02;;;;;;;1.2;0.9;;;;;;;;;;;;;
2020/07/05 12:21:26;;;;;;;2.1;1;;;;;;;;;;;;;
2020/07/05 12:23:51;;;;;;;2.1;1.1;;;;;;;;;;;;;
2020/07/05 12:26:17;;;;;;;2.6;1.1;;;;;;;;;;;;;
2020/07/05 12:28:42;;;;;;;4.6;1.3;;;;;;;;;;;;;
2020/07/05 12:31:07;;;;;;;1.7;1;;;;;;;;;;;;;
2020/07/05 12:33:32;;;;;;;1.9;1.1;;;;;;;;;;;;;
2020/07/05 12:35:57;;;;;;;2.3;1.1;;;;;;;;;;;;;
2020/07/05 12:38:23;;;;;;;3.3;1.2;;;;;;;;;;;;;
2020/07/05 12:40:48;;;;;;;1.3;1.1;;;;;;;;;;;;;
2020/07/05 12:43:15;;;;;;;2;1;;;;;;;;;;;;;
2020/07/05 12:45:41;;;;;;;2.2;1;;;;;;;;;;;;;
2020/07/05 12:48:05;;;;;;;3;1;;;;;;;;;;;;;
2020/07/05 12:50:30;;;;;;;2.9;1.2;;;;;;;;;;;;;
2020/07/05 12:52:59;;;;;;;2.9;1.2;;;;;;;;;;;;;
2020/07/05 12:55:23;;;;;;;3.1;1.1;;;;;;;;;;;;;
2020/07/05 12:57:48;;;;;;;2.8;1.2;;;;;;;;;;;;;
2020/07/05 13:00:14;;;;;;;1.8;1.1;;;;;;;;;;;;;
2020/07/05 13:02:38;;;;;;;1.9;1.2;;;;;;;;;;;;;
2020/07/05 13:05:04;;;;;;;3.8;1.2;;;;;;;;;;;;;
2020/07/05 13:07:29;;;;;;;4.7;1.2;;;;;;;;;;;;;
2020/07/05 13:09:53;;;;;;;4;1.2;;;;;;;;;;;;;
2020/07/05 13:12:19;;;;;;;3.5;1.2;;;;;;;;;;;;;
2020/07/05 13:14:44;;;;;;;2.4;1.3;;;;;;;;;;;;;
2020/07/05 13:17:09;;;;;;;4;1.2;;;;;;;;;;;;;
2020/07/05 13:19:34;;;;;;;4.1;1.2;;;;;;;;;;;;;
2020/07/05 13:21:59;;;;;;;6.2;1.2;;;;;;;;;;;;;
2020/07/05 13:24:25;;;;;;;3.3;1;;;;;;;;;;;;;
2020/07/05 13:26:50;;;;;;;2.7;1.3;;;;;;;;;;;;;
2020/07/05 13:29:16;;;;;;;2.7;1.3;;;;;;;;;;;;;
2020/07/05 13:31:41;;;;;;;2.8;1.1;;;;;;;;;;;;;
2020/07/05 13:34:06;;;;;;;2.3;1.1;;;;;;;;;;;;;
2020/07/05 13:36:32;;;;;;;4.9;1.1;;;;;;;;;;;;;
2020/07/05 13:38:57;;;;;;;2.4;1.2;;;;;;;;;;;;;
2020/07/05 13:41:22;;;;;;;2.3;1;;;;;;;;;;;;;
2020/07/05 13:43:47;;;;;;;1.3;1;;;;;;;;;;;;;
2020/07/05 13:46:12;;;;;;;1.3;1;;;;;;;;;;;;;
2020/07/05 13:48:37;;;;;;;3.3;1.1;;;;;;;;;;;;;
2020/07/05 13:51:02;;;;;;;1.7;0.9;;;;;;;;;;;;;
2020/07/05 13:53:27;;;;;;;2;1.1;;;;;;;;;;;;;
2020/07/05 13:55:53;;;;;;;2.8;1.2;;;;;;;;;;;;;
2020/07/05 13:58:18;;;;;;;2.7;1.1;;;;;;;;;;;;;
2020/07/05 14:00:43;;;;;;;2.3;0.9;;;;;;;;;;;;;
2020/07/05 14:03:08;;;;;;;3.7;1.2;;;;;;;;;;;;;
2020/07/05 14:05:33;;;;;;;7.5;1.6;;;;;;;;;;;;;
2020/07/05 14:07:59;;;;;;;2.1;1;;;;;;;;;;;;;
2020/07/05 14:10:25;;;;;;;1.7;0.9;;;;;;;;;;;;;
2020/07/05 14:12:52;;;;;;;13.9;2.4;;;;;;;;;;;;;
2020/07/05 14:15:20;;;;;;;2.5;1.2;;;;;;;;;;;;;
2020/07/05 14:17:50;;;;;;;3.9;1.1;;;;;;;;;;;;;
2020/07/05 14:20:14;;;;;;;1.7;1;;;;;;;;;;;;;
2020/07/05 14:22:39;;;;;;;3;1.2;;;;;;;;;;;;;
2020/07/05 14:25:05;;;;;;;4.2;1;;;;;;;;;;;;;
2020/07/05 14:27:30;;;;;;;3.4;1;;;;;;;;;;;;;
2020/07/05 14:29:56;;;;;;;1.1;0.8;;;;;;;;;;;;;
2020/07/05 14:32:22;;;;;;;1.2;0.9;;;;;;;;;;;;;
2020/07/05 14:34:47;;;;;;;1.7;1.1;;;;;;;;;;;;;
2020/07/05 14:37:13;;;;;;;3.7;1;;;;;;;;;;;;;
2020/07/05 14:39:38;;;;;;;2.2;0.9;;;;;;;;;;;;;
2020/07/05 14:42:03;;;;;;;1.6;1;;;;;;;;;;;;;
2020/07/05 14:44:28;;;;;;;2.4;0.9;;;;;;;;;;;;;
2020/07/05 14:46:54;;;;;;;2;1;;;;;;;;;;;;;
2020/07/05 14:49:18;;;;;;;1.3;0.9;;;;;;;;;;;;;
2020/07/05 14:51:44;;;;;;;1.6;1;;;;;;;;;;;;;
2020/07/05 14:54:10;;;;;;;1.2;1;;;;;;;;;;;;;
2020/07/05 14:56:35;;;;;;;3.4;0.9;;;;;;;;;;;;;
2020/07/05 14:59:01;;;;;;;0.8;0.8;;;;;;;;;;;;;
2020/07/05 15:01:27;;;;;;;1.7;0.9;;;;;;;;;;;;;
2020/07/05 15:03:53;;;;;;;1.1;0.8;;;;;;;;;;;;;
2020/07/05 15:06:17;;;;;;;1.5;0.7;;;;;;;;;;;;;
2020/07/05 15:08:44;;;;;;;1;0.8;;;;;;;;;;;;;
2020/07/05 15:11:09;;;;;;;2;1;;;;;;;;;;;;;
2020/07/05 15:13:37;;;;;;;3.7;1;;;;;;;;;;;;;
2020/07/05 15:16:02;;;;;;;1.3;0.9;;;;;;;;;;;;;
2020/07/05 15:18:28;;;;;;;1.6;1;;;;;;;;;;;;;
2020/07/05 15:20:53;;;;;;;1.9;0.9;;;;;;;;;;;;;
2020/07/05 15:23:20;;;;;;;2.1;0.9;;;;;;;;;;;;;
2020/07/05 15:25:44;;;;;;;2.8;1;;;;;;;;;;;;;
2020/07/05 15:28:11;;;;;;;3.7;0.9;;;;;;;;;;;;;
2020/07/05 15:30:36;;;;;;;1.4;0.9;;;;;;;;;;;;;
2020/07/05 15:33:01;;;;;;;2.1;0.9;;;;;;;;;;;;;
2020/07/05 15:35:26;;;;;;;2.2;0.9;;;;;;;;;;;;;
2020/07/05 15:37:53;;;;;;;2.6;1;;;;;;;;;;;;;
2020/07/05 15:40:18;;;;;;;1.9;1;;;;;;;;;;;;;
2020/07/05 15:42:44;;;;;;;1.6;0.9;;;;;;;;;;;;;
2020/07/05 15:45:08;;;;;;;1.9;1;;;;;;;;;;;;;
2020/07/05 15:47:37;;;;;;;2.5;1.3;;;;;;;;;;;;;
2020/07/05 15:50:00;;;;;;;2.3;1.1;;;;;;;;;;;;;
2020/07/05 15:52:27;;;;;;;3.4;1.2;;;;;;;;;;;;;
2020/07/05 15:54:51;;;;;;;1.5;0.9;;;;;;;;;;;;;
2020/07/05 15:57:17;;;;;;;1.9;0.8;;;;;;;;;;;;;
2020/07/05 15:59:42;;;;;;;1.5;0.8;;;;;;;;;;;;;
2020/07/05 16:02:07;;;;;;;2;0.9;;;;;;;;;;;;;
2020/07/05 16:04:32;;;;;;;2.8;1.2;;;;;;;;;;;;;
2020/07/05 16:06:57;;;;;;;1.9;1.3;;;;;;;;;;;;;
2020/07/05 16:09:23;;;;;;;1.9;1.1;;;;;;;;;;;;;
2020/07/05 16:11:49;;;;;;;1.8;0.8;;;;;;;;;;;;;
2020/07/05 16:14:14;;;;;;;2.4;0.9;;;;;;;;;;;;;
2020/07/05 16:16:38;;;;;;;2.5;1.1;;;;;;;;;;;;;
2020/07/05 16:19:04;;;;;;;3;1.2;;;;;;;;;;;;;
2020/07/05 16:21:30;;;;;;;1.9;1;;;;;;;;;;;;;
2020/07/05 16:23:54;;;;;;;1.3;1.1;;;;;;;;;;;;;
2020/07/05 16:26:20;;;;;;;2;0.8;;;;;;;;;;;;;
2020/07/05 16:28:45;;;;;;;2.6;0.9;;;;;;;;;;;;;
2020/07/05 16:31:13;;;;;;;1.9;0.9;;;;;;;;;;;;;
2020/07/05 16:33:37;;;;;;;2.1;1;;;;;;;;;;;;;
2020/07/05 16:36:02;;;;;;;1.9;1;;;;;;;;;;;;;
2020/07/05 16:38:27;;;;;;;4.1;1.1;;;;;;;;;;;;;
2020/07/05 16:40:53;;;;;;;1.6;1.2;;;;;;;;;;;;;
2020/07/05 16:43:17;;;;;;;1.7;0.9;;;;;;;;;;;;;
2020/07/05 16:45:43;;;;;;;1.5;0.9;;;;;;;;;;;;;
2020/07/05 16:48:09;;;;;;;3.4;1.1;;;;;;;;;;;;;
2020/07/05 16:50:35;;;;;;;3;1.2;;;;;;;;;;;;;
2020/07/05 16:52:59;;;;;;;4.3;1;;;;;;;;;;;;;
2020/07/05 16:55:25;;;;;;;1.2;1;;;;;;;;;;;;;
2020/07/05 16:57:49;;;;;;;2.2;1;;;;;;;;;;;;;
2020/07/05 17:00:15;;;;;;;1.7;0.9;;;;;;;;;;;;;
2020/07/05 17:02:41;;;;;;;2.4;1;;;;;;;;;;;;;
2020/07/05 17:05:08;;;;;;;1.5;0.9;;;;;;;;;;;;;
2020/07/05 17:07:33;;;;;;;3.1;1.2;;;;;;;;;;;;;
2020/07/05 17:09:57;;;;;;;4.7;1;;;;;;;;;;;;;
2020/07/05 17:12:23;;;;;;;2;1;;;;;;;;;;;;;
2020/07/05 17:14:49;;;;;;;3.1;1;;;;;;;;;;;;;
2020/07/05 17:17:14;;;;;;;4.2;1.1;;;;;;;;;;;;;
2020/07/05 17:19:40;;;;;;;1.8;1.1;;;;;;;;;;;;;
2020/07/05 17:22:05;;;;;;;1.4;0.9;;;;;;;;;;;;;
2020/07/05 17:24:32;;;;;;;1.2;0.9;;;;;;;;;;;;;
2020/07/05 17:26:56;;;;;;;1.7;1.2;;;;;;;;;;;;;
2020/07/05 17:29:22;;;;;;;3.6;1.3;;;;;;;;;;;;;
2020/07/05 17:31:50;;;;;;;2.5;0.9;;;;;;;;;;;;;
2020/07/05 17:34:15;;;;;;;2.7;0.9;;;;;;;;;;;;;
2020/07/05 17:36:40;;;;;;;1.8;1;;;;;;;;;;;;;
2020/07/05 17:39:05;;;;;;;1.9;0.9;;;;;;;;;;;;;
2020/07/05 17:41:31;;;;;;;4;1.1;;;;;;;;;;;;;
2020/07/05 17:43:56;;;;;;;2.7;0.9;;;;;;;;;;;;;
2020/07/05 17:46:21;;;;;;;2.1;1.1;;;;;;;;;;;;;
2020/07/05 17:48:46;;;;;;;3;1.2;;;;;;;;;;;;;
2020/07/05 17:51:13;;;;;;;3.1;1;;;;;;;;;;;;;
2020/07/05 17:53:38;;;;;;;3.2;0.8;;;;;;;;;;;;;
2020/07/05 17:56:04;;;;;;;1.9;1;;;;;;;;;;;;;
2020/07/05 17:58:29;;;;;;;4.9;1;;;;;;;;;;;;;
2020/07/05 18:00:54;;;;;;;2;1.3;;;;;;;;;;;;;
2020/07/05 18:03:19;;;;;;;6.2;2.5;;;;;;;;;;;;;
2020/07/05 18:05:44;;;;;;;3.7;2.3;;;;;;;;;;;;;
2020/07/05 18:08:09;;;;;;;4.8;1.9;;;;;;;;;;;;;
2020/07/05 18:10:34;;;;;;;2.9;1.7;;;;;;;;;;;;;
2020/07/05 18:13:02;;;;;;;4.2;1.2;;;;;;;;;;;;;
2020/07/05 18:15:26;;;;;;;4.6;1.9;;;;;;;;;;;;;
2020/07/05 18:17:54;;;;;;;7.9;3.5;;;;;;;;;;;;;
2020/07/05 18:20:19;;;;;;;7.9;2.6;;;;;;;;;;;;;
2020/07/05 18:22:44;;;;;;;5.7;1.8;;;;;;;;;;;;;
2020/07/05 18:25:09;;;;;;;8.9;2;;;;;;;;;;;;;
2020/07/05 18:27:34;;;;;;;4.7;1.9;;;;;;;;;;;;;
2020/07/05 18:29:59;;;;;;;6.4;2;;;;;;;;;;;;;
2020/07/05 18:32:24;;;;;;;3.6;1.4;;;;;;;;;;;;;
2020/07/05 18:34:50;;;;;;;3.2;1.3;;;;;;;;;;;;;
2020/07/05 18:37:14;;;;;;;3.6;1.8;;;;;;;;;;;;;
2020/07/05 18:39:42;;;;;;;6.6;1.8;;;;;;;;;;;;;
2020/07/05 18:42:04;;;;;;;7;2.5;;;;;;;;;;;;;
2020/07/05 18:44:29;;;;;;;6.2;2.4;;;;;;;;;;;;;
2020/07/05 18:46:55;;;;;;;11.9;2.3;;;;;;;;;;;;;
2020/07/05 18:49:20;;;;;;;6.2;2.3;;;;;;;;;;;;;
2020/07/05 18:51:45;;;;;;;8.5;2.4;;;;;;;;;;;;;
2020/07/05 18:54:11;;;;;;;7.1;2.1;;;;;;;;;;;;;
2020/07/05 18:56:35;;;;;;;6.8;2.2;;;;;;;;;;;;;